createdAt,value
2016-10-25T00:00:55.233Z,0
2016-10-25T00:02:03.948Z,0
2016-10-25T00:03:12.981Z,0
2016-10-25T00:04:21.680Z,0
2016-10-25T00:05:30.387Z,0
2016-10-25T00:06:39.420Z,0
2016-10-25T00:07:48.125Z,0
2016-10-25T00:08:57.140Z,0
2016-10-25T00:10:06.417Z,0
2016-10-25T00:11:15.456Z,0
2016-10-25T00:12:24.519Z,0
2016-10-25T00:13:33.561Z,0
2016-10-25T00:14:42.259Z,0
2016-10-25T00:15:51.009Z,0
2016-10-25T00:17:00.042Z,0
2016-10-25T00:18:08.745Z,0
2016-10-25T00:19:17.460Z,0
2016-10-25T00:20:26.865Z,0
2016-10-25T00:21:35.563Z,0
2016-10-25T00:22:44.597Z,0
2016-10-25T00:23:53.304Z,0
2016-10-25T00:25:02.008Z,0
2016-10-25T00:26:10.723Z,0
2016-10-25T00:27:19.757Z,0
2016-10-25T00:28:28.452Z,0
2016-10-25T00:29:37.147Z,0
2016-10-25T00:30:46.521Z,0
2016-10-25T00:31:55.992Z,0
2016-10-25T00:33:05.005Z,0
2016-10-25T00:34:14.039Z,0
2016-10-25T00:35:22.755Z,0
2016-10-25T00:36:31.455Z,0
2016-10-25T00:37:40.150Z,0
2016-10-25T00:38:48.846Z,0
2016-10-25T00:39:57.892Z,0
2016-10-25T00:41:06.921Z,0
2016-10-25T00:42:16.492Z,0
2016-10-25T00:43:25.541Z,0
2016-10-25T00:44:34.552Z,0
2016-10-25T00:45:43.787Z,0
2016-10-25T00:46:52.491Z,0
2016-10-25T00:48:01.187Z,0
2016-10-25T00:49:09.908Z,0
2016-10-25T00:50:18.916Z,0
2016-10-25T00:51:27.954Z,0
2016-10-25T00:52:36.648Z,0
2016-10-25T00:53:45.354Z,0
2016-10-25T00:54:54.258Z,0
2016-10-25T00:56:02.953Z,0
2016-10-25T00:57:12.016Z,0
2016-10-25T00:58:21.362Z,0
2016-10-25T00:59:30.057Z,0
2016-10-25T01:00:39.089Z,0
2016-10-25T01:01:47.821Z,0
2016-10-25T01:02:56.868Z,0
2016-10-25T01:04:06.079Z,0
2016-10-25T01:05:15.113Z,0
2016-10-25T01:06:24.346Z,0
2016-10-25T01:07:33.052Z,0
2016-10-25T01:08:41.770Z,0
2016-10-25T01:09:50.779Z,0
2016-10-25T01:10:59.497Z,0
2016-10-25T01:12:08.504Z,0
2016-10-25T01:13:17.219Z,0
2016-10-25T01:14:25.911Z,0
2016-10-25T01:15:35.522Z,0
2016-10-25T01:16:44.214Z,0
2016-10-25T01:17:53.249Z,0
2016-10-25T01:19:02.631Z,0
2016-10-25T01:20:11.680Z,0
2016-10-25T01:21:20.381Z,0
2016-10-25T01:22:29.615Z,0
2016-10-25T01:23:38.322Z,0
2016-10-25T01:24:47.030Z,0
2016-10-25T01:25:55.728Z,0
2016-10-25T01:27:04.783Z,0
2016-10-25T01:28:13.495Z,0
2016-10-25T01:29:22.505Z,0
2016-10-25T01:30:31.213Z,0
2016-10-25T01:31:39.912Z,0
2016-10-25T01:32:49.153Z,0
2016-10-25T01:33:58.186Z,0
2016-10-25T01:35:06.883Z,0
2016-10-25T01:36:15.607Z,0
2016-10-25T01:37:24.642Z,0
2016-10-25T01:38:33.341Z,0
2016-10-25T01:39:42.413Z,0
2016-10-25T01:40:51.648Z,0
2016-10-25T01:42:00.375Z,0
2016-10-25T01:43:09.471Z,0
2016-10-25T01:44:18.723Z,0
2016-10-25T01:45:27.427Z,0
2016-10-25T01:46:36.127Z,0
2016-10-25T01:47:44.823Z,0
2016-10-25T01:48:53.522Z,0
2016-10-25T01:50:02.573Z,0
2016-10-25T01:51:11.922Z,0
2016-10-25T01:52:20.639Z,0
2016-10-25T01:53:29.657Z,0
2016-10-25T01:54:38.701Z,0
2016-10-25T01:55:47.735Z,0
2016-10-25T01:56:57.446Z,0
2016-10-25T01:58:06.481Z,0
2016-10-25T01:59:15.177Z,0
2016-10-25T02:00:23.883Z,0
2016-10-25T02:01:32.914Z,0
2016-10-25T02:02:41.610Z,0
2016-10-25T02:03:50.658Z,0
2016-10-25T02:04:59.352Z,0
2016-10-25T02:06:08.484Z,0
2016-10-25T02:07:17.726Z,0
2016-10-25T02:08:26.422Z,0
2016-10-25T02:09:35.123Z,0
2016-10-25T02:10:43.831Z,0
2016-10-25T02:11:52.576Z,0
2016-10-25T02:13:01.592Z,0
2016-10-25T02:14:10.290Z,0
2016-10-25T02:15:19.664Z,0
2016-10-25T02:16:28.367Z,0
2016-10-25T02:17:37.409Z,0
2016-10-25T02:18:46.651Z,0
2016-10-25T02:19:55.710Z,0
2016-10-25T02:21:04.724Z,0
2016-10-25T02:22:14.117Z,0
2016-10-25T02:23:22.813Z,0
2016-10-25T02:24:31.530Z,0
2016-10-25T02:25:40.592Z,0
2016-10-25T02:26:49.626Z,0
2016-10-25T02:27:58.997Z,0
2016-10-25T02:29:07.705Z,0
2016-10-25T02:30:16.739Z,0
2016-10-25T02:31:25.460Z,0
2016-10-25T02:32:34.805Z,0
2016-10-25T02:33:43.508Z,0
2016-10-25T02:34:52.201Z,0
2016-10-25T02:36:00.901Z,0
2016-10-25T02:37:09.600Z,0
2016-10-25T02:38:18.300Z,0
2016-10-25T02:39:27.544Z,0
2016-10-25T02:40:36.242Z,0
2016-10-25T02:41:44.938Z,0
2016-10-25T02:42:53.968Z,0
2016-10-25T02:44:03.208Z,0
2016-10-25T02:45:11.908Z,0
2016-10-25T02:46:21.141Z,0
2016-10-25T02:47:29.835Z,0
2016-10-25T02:48:38.597Z,0
2016-10-25T02:49:47.294Z,0
2016-10-25T02:50:56.537Z,0
2016-10-25T02:52:05.692Z,0
2016-10-25T02:53:14.265Z,0
2016-10-25T02:54:22.957Z,0
2016-10-25T02:55:31.652Z,0
2016-10-25T02:56:40.685Z,0
2016-10-25T02:57:49.424Z,0
2016-10-25T02:58:58.123Z,0
2016-10-25T03:00:06.866Z,0
2016-10-25T03:01:15.562Z,0
2016-10-25T03:02:25.156Z,0
2016-10-25T03:03:33.854Z,0
2016-10-25T03:04:42.907Z,0
2016-10-25T03:05:51.916Z,0
2016-10-25T03:07:00.934Z,0
2016-10-25T03:08:09.969Z,0
2016-10-25T03:09:18.999Z,0
2016-10-25T03:10:27.725Z,0
2016-10-25T03:11:37.075Z,0
2016-10-25T03:12:45.780Z,0
2016-10-25T03:13:54.847Z,0
2016-10-25T03:15:03.543Z,0
2016-10-25T03:16:12.239Z,0
2016-10-25T03:17:21.612Z,0
2016-10-25T03:18:31.316Z,0
2016-10-25T03:19:40.349Z,0
2016-10-25T03:20:49.044Z,0
2016-10-25T03:21:57.740Z,0
2016-10-25T03:23:06.440Z,0
2016-10-25T03:24:15.141Z,0
2016-10-25T03:25:23.860Z,0
2016-10-25T03:26:33.434Z,0
2016-10-25T03:27:42.469Z,0
2016-10-25T03:28:51.701Z,0
2016-10-25T03:30:00.400Z,0
2016-10-25T03:31:09.453Z,0
2016-10-25T03:32:19.363Z,0
2016-10-25T03:33:28.392Z,0
2016-10-25T03:34:37.087Z,0
2016-10-25T03:35:45.794Z,0
2016-10-25T03:36:54.495Z,0
2016-10-25T03:38:03.192Z,0
2016-10-25T03:39:11.900Z,0
2016-10-25T03:40:20.601Z,0
2016-10-25T03:41:29.301Z,0
2016-10-25T03:42:38.363Z,0
2016-10-25T03:43:47.402Z,0
2016-10-25T03:44:56.727Z,0
2016-10-25T03:46:06.071Z,0
2016-10-25T03:47:14.776Z,0
2016-10-25T03:48:23.468Z,0
2016-10-25T03:49:32.170Z,0
2016-10-25T03:50:41.200Z,0
2016-10-25T03:51:49.903Z,0
2016-10-25T03:52:58.933Z,0
2016-10-25T03:54:07.657Z,0
2016-10-25T03:55:16.667Z,0
2016-10-25T03:56:25.360Z,0
2016-10-25T03:57:34.399Z,0
2016-10-25T03:58:43.109Z,0
2016-10-25T03:59:51.816Z,0
2016-10-25T04:01:01.099Z,0
2016-10-25T04:02:09.791Z,0
2016-10-25T04:03:18.832Z,0
2016-10-25T04:04:27.869Z,0
2016-10-25T04:05:36.905Z,0
2016-10-25T04:06:45.599Z,0
2016-10-25T04:07:54.676Z,0
2016-10-25T04:09:03.367Z,0
2016-10-25T04:10:12.063Z,0
2016-10-25T04:11:20.790Z,0
2016-10-25T04:12:29.828Z,0
2016-10-25T04:13:39.200Z,0
2016-10-25T04:14:47.917Z,0
2016-10-25T04:15:56.616Z,0
2016-10-25T04:17:05.349Z,0
2016-10-25T04:18:14.391Z,0
2016-10-25T04:19:23.429Z,0
2016-10-25T04:20:32.456Z,0
2016-10-25T04:21:41.150Z,0
2016-10-25T04:22:49.852Z,0
2016-10-25T04:23:59.089Z,0
2016-10-25T04:25:07.794Z,0
2016-10-25T04:26:16.829Z,0
2016-10-25T04:27:25.547Z,0
2016-10-25T04:28:34.587Z,0
2016-10-25T04:29:43.620Z,0
2016-10-25T04:30:52.313Z,0
2016-10-25T04:32:01.726Z,0
2016-10-25T04:33:11.091Z,0
2016-10-25T04:34:20.325Z,0
2016-10-25T04:35:29.026Z,0
2016-10-25T04:36:37.751Z,0
2016-10-25T04:37:46.786Z,0
2016-10-25T04:38:55.503Z,0
2016-10-25T04:40:04.871Z,0
2016-10-25T04:41:13.886Z,0
2016-10-25T04:42:22.949Z,0
2016-10-25T04:43:31.961Z,0
2016-10-25T04:44:40.999Z,0
2016-10-25T04:45:50.822Z,0
2016-10-25T04:46:59.517Z,0
2016-10-25T04:48:08.556Z,0
2016-10-25T04:49:17.610Z,0
2016-10-25T04:50:27.052Z,0
2016-10-25T04:51:36.093Z,0
2016-10-25T04:52:45.671Z,0
2016-10-25T04:53:54.710Z,0
2016-10-25T04:55:03.781Z,0
2016-10-25T04:56:13.152Z,0
2016-10-25T04:57:21.845Z,0
2016-10-25T04:58:31.088Z,0
2016-10-25T04:59:40.120Z,0
2016-10-25T05:00:49.163Z,0
2016-10-25T05:01:57.859Z,0
2016-10-25T05:03:06.566Z,0
2016-10-25T05:04:15.260Z,0
2016-10-25T05:05:23.997Z,0
2016-10-25T05:06:32.723Z,0
2016-10-25T05:07:42.472Z,0
2016-10-25T05:08:51.187Z,0
2016-10-25T05:10:00.559Z,0
2016-10-25T05:11:10.131Z,0
2016-10-25T05:12:18.828Z,0
2016-10-25T05:13:29.177Z,0
2016-10-25T05:14:38.193Z,0
2016-10-25T05:15:47.220Z,0
2016-10-25T05:16:55.926Z,0
2016-10-25T05:18:04.951Z,0
2016-10-25T05:19:13.667Z,0
2016-10-25T05:20:22.899Z,0
2016-10-25T05:21:31.599Z,0
2016-10-25T05:22:40.628Z,0
2016-10-25T05:23:49.322Z,0
2016-10-25T05:24:58.562Z,0
2016-10-25T05:26:07.598Z,0
2016-10-25T05:27:16.633Z,0
2016-10-25T05:28:25.702Z,0
2016-10-25T05:29:34.736Z,0
2016-10-25T05:30:43.777Z,0
2016-10-25T05:31:52.819Z,0
2016-10-25T05:33:01.851Z,0
2016-10-25T05:34:10.887Z,0
2016-10-25T05:35:19.937Z,0
2016-10-25T05:36:29.349Z,0
2016-10-25T05:37:38.390Z,0
2016-10-25T05:38:47.091Z,0
2016-10-25T05:39:56.117Z,0
2016-10-25T05:41:04.877Z,0
2016-10-25T05:42:13.945Z,0
2016-10-25T05:43:22.639Z,0
2016-10-25T05:44:31.355Z,0
2016-10-25T05:45:40.439Z,0
2016-10-25T05:46:49.471Z,0
2016-10-25T05:47:58.165Z,0
2016-10-25T05:49:06.869Z,0
2016-10-25T05:50:15.799Z,0
2016-10-25T05:51:24.836Z,0
2016-10-25T05:52:33.535Z,4
2016-10-25T05:53:42.234Z,4
2016-10-25T05:54:51.283Z,0
2016-10-25T05:55:59.977Z,0
2016-10-25T05:57:08.989Z,4
2016-10-25T05:58:17.703Z,4
2016-10-25T05:59:26.424Z,4
2016-10-25T06:00:35.432Z,4
2016-10-25T06:01:44.138Z,4
2016-10-25T06:02:53.088Z,4
2016-10-25T06:04:01.790Z,8
2016-10-25T06:05:10.490Z,8
2016-10-25T06:06:19.181Z,8
2016-10-25T06:07:27.905Z,8
2016-10-25T06:08:36.912Z,8
2016-10-25T06:09:45.614Z,12
2016-10-25T06:10:54.345Z,12
2016-10-25T06:12:03.077Z,12
2016-10-25T06:13:11.772Z,12
2016-10-25T06:14:20.464Z,16
2016-10-25T06:15:29.165Z,16
2016-10-25T06:16:37.885Z,20
2016-10-25T06:17:46.912Z,20
2016-10-25T06:18:55.919Z,20
2016-10-25T06:20:05.156Z,16
2016-10-25T06:21:14.188Z,20
2016-10-25T06:22:23.435Z,28
2016-10-25T06:23:32.508Z,28
2016-10-25T06:24:41.567Z,28
2016-10-25T06:25:51.121Z,28
2016-10-25T06:26:59.821Z,36
2016-10-25T06:28:08.521Z,40
2016-10-25T06:29:17.215Z,44
2016-10-25T06:30:25.930Z,48
2016-10-25T06:31:34.659Z,48
2016-10-25T06:32:43.361Z,44
2016-10-25T06:33:52.062Z,48
2016-10-25T06:35:00.794Z,52
2016-10-25T06:36:09.491Z,56
2016-10-25T06:37:18.550Z,64
2016-10-25T06:38:27.562Z,72
2016-10-25T06:39:36.926Z,76
2016-10-25T06:40:45.616Z,72
2016-10-25T06:41:54.310Z,84
2016-10-25T06:43:03.001Z,96
2016-10-25T06:44:12.366Z,108
2016-10-25T06:45:21.104Z,104
2016-10-25T06:46:29.806Z,100
2016-10-25T06:47:38.585Z,104
2016-10-25T06:48:47.286Z,104
2016-10-25T06:49:56.019Z,112
2016-10-25T06:51:05.717Z,112
2016-10-25T06:52:14.756Z,108
2016-10-25T06:53:23.448Z,124
2016-10-25T06:54:32.153Z,136
2016-10-25T06:55:40.846Z,140
2016-10-25T06:56:49.884Z,144
2016-10-25T06:57:58.585Z,148
2016-10-25T06:59:07.279Z,148
2016-10-25T07:00:17.034Z,148
2016-10-25T07:01:25.753Z,140
2016-10-25T07:02:35.125Z,144
2016-10-25T07:03:44.696Z,152
2016-10-25T07:04:53.730Z,148
2016-10-25T07:06:03.054Z,160
2016-10-25T07:07:12.168Z,172
2016-10-25T07:08:21.197Z,188
2016-10-25T07:09:29.893Z,204
2016-10-25T07:10:38.592Z,208
2016-10-25T07:11:47.338Z,220
2016-10-25T07:12:56.910Z,224
2016-10-25T07:14:05.606Z,240
2016-10-25T07:15:14.304Z,264
2016-10-25T07:16:23.248Z,272
2016-10-25T07:17:31.947Z,284
2016-10-25T07:18:40.643Z,288
2016-10-25T07:19:49.347Z,300
2016-10-25T07:20:58.085Z,292
2016-10-25T07:22:06.883Z,292
2016-10-25T07:23:15.587Z,272
2016-10-25T07:24:24.284Z,264
2016-10-25T07:25:32.978Z,264
2016-10-25T07:26:41.714Z,276
2016-10-25T07:27:50.464Z,308
2016-10-25T07:28:59.527Z,400
2016-10-25T07:30:08.588Z,484
2016-10-25T07:31:17.603Z,508
2016-10-25T07:32:26.303Z,544
2016-10-25T07:33:35.053Z,552
2016-10-25T07:34:44.081Z,536
2016-10-25T07:35:53.110Z,516
2016-10-25T07:37:01.806Z,496
2016-10-25T07:38:10.505Z,476
2016-10-25T07:39:19.253Z,468
2016-10-25T07:40:27.948Z,464
2016-10-25T07:41:36.987Z,484
2016-10-25T07:42:45.994Z,520
2016-10-25T07:43:55.361Z,556
2016-10-25T07:45:04.141Z,576
2016-10-25T07:46:13.784Z,620
2016-10-25T07:47:22.509Z,652
2016-10-25T07:48:31.519Z,640
2016-10-25T07:49:40.419Z,624
2016-10-25T07:50:49.370Z,648
2016-10-25T07:51:58.271Z,680
2016-10-25T07:53:06.967Z,692
2016-10-25T07:54:15.662Z,672
2016-10-25T07:55:24.700Z,680
2016-10-25T07:56:33.947Z,716
2016-10-25T07:57:42.671Z,772
2016-10-25T07:58:51.370Z,804
2016-10-25T08:00:00.068Z,816
2016-10-25T08:01:08.795Z,856
2016-10-25T08:02:17.808Z,924
2016-10-25T08:03:26.498Z,1004
2016-10-25T08:04:35.212Z,1100
2016-10-25T08:05:44.565Z,1192
2016-10-25T08:06:53.596Z,1264
2016-10-25T08:08:02.606Z,1344
2016-10-25T08:09:11.302Z,1412
2016-10-25T08:10:20.003Z,1460
2016-10-25T08:11:28.701Z,1476
2016-10-25T08:12:37.402Z,1484
2016-10-25T08:13:46.769Z,1508
2016-10-25T08:14:55.467Z,1536
2016-10-25T08:16:04.499Z,1572
2016-10-25T08:17:13.194Z,1608
2016-10-25T08:18:22.584Z,1648
2016-10-25T08:19:31.929Z,1692
2016-10-25T08:20:40.620Z,1776
2016-10-25T08:21:49.319Z,1904
2016-10-25T08:22:58.367Z,2076
2016-10-25T08:24:07.069Z,2232
2016-10-25T08:25:16.643Z,2344
2016-10-25T08:26:25.682Z,2384
2016-10-25T08:27:34.387Z,2440
2016-10-25T08:28:43.092Z,2496
2016-10-25T08:29:51.819Z,2540
2016-10-25T08:31:00.520Z,2580
2016-10-25T08:32:09.220Z,2636
2016-10-25T08:33:17.915Z,2644
2016-10-25T08:34:26.620Z,2664
2016-10-25T08:35:35.330Z,2700
2016-10-25T08:36:44.389Z,2628
2016-10-25T08:37:54.035Z,2444
2016-10-25T08:39:03.388Z,2340
2016-10-25T08:40:12.109Z,2340
2016-10-25T08:41:21.125Z,2408
2016-10-25T08:42:30.145Z,2392
2016-10-25T08:43:39.175Z,2272
2016-10-25T08:44:47.869Z,2172
2016-10-25T08:45:56.587Z,2132
2016-10-25T08:47:05.618Z,2100
2016-10-25T08:48:14.653Z,2084
2016-10-25T08:49:23.692Z,2096
2016-10-25T08:50:32.722Z,2168
2016-10-25T08:51:41.750Z,2228
2016-10-25T08:52:50.451Z,2196
2016-10-25T08:53:59.166Z,2148
2016-10-25T08:55:07.896Z,2092
2016-10-25T08:56:16.592Z,2080
2016-10-25T08:57:25.294Z,2108
2016-10-25T08:58:33.991Z,2064
2016-10-25T08:59:42.690Z,1988
2016-10-25T09:00:51.387Z,1952
2016-10-25T09:02:00.085Z,1960
2016-10-25T09:03:08.787Z,1980
2016-10-25T09:04:17.485Z,2064
2016-10-25T09:05:26.185Z,2096
2016-10-25T09:06:34.893Z,2068
2016-10-25T09:07:43.589Z,2056
2016-10-25T09:08:52.292Z,2052
2016-10-25T09:10:00.989Z,2092
2016-10-25T09:11:09.687Z,2168
2016-10-25T09:12:18.380Z,2260
2016-10-25T09:13:27.082Z,2336
2016-10-25T09:14:35.781Z,2372
2016-10-25T09:15:44.480Z,2368
2016-10-25T09:16:53.181Z,2348
2016-10-25T09:18:01.925Z,2324
2016-10-25T09:19:10.630Z,2332
2016-10-25T09:20:19.336Z,2356
2016-10-25T09:21:28.031Z,2352
2016-10-25T09:22:36.728Z,2332
2016-10-25T09:23:45.425Z,2308
2016-10-25T09:24:54.448Z,2304
2016-10-25T09:26:03.189Z,2316
2016-10-25T09:27:11.886Z,2364
2016-10-25T09:28:20.611Z,2404
2016-10-25T09:29:29.308Z,2440
2016-10-25T09:30:38.010Z,2472
2016-10-25T09:31:46.710Z,2504
2016-10-25T09:32:55.408Z,2564
2016-10-25T09:34:04.108Z,2636
2016-10-25T09:35:12.818Z,2684
2016-10-25T09:36:21.523Z,2664
2016-10-25T09:37:30.218Z,2568
2016-10-25T09:38:38.915Z,2504
2016-10-25T09:39:47.641Z,2476
2016-10-25T09:40:56.342Z,2432
2016-10-25T09:42:05.043Z,2400
2016-10-25T09:43:13.744Z,2456
2016-10-25T09:44:22.476Z,2576
2016-10-25T09:45:31.171Z,2716
2016-10-25T09:46:39.887Z,2792
2016-10-25T09:47:48.580Z,2864
2016-10-25T09:48:57.282Z,2952
2016-10-25T09:50:05.978Z,3084
2016-10-25T09:51:14.686Z,3364
2016-10-25T09:52:23.385Z,3748
2016-10-25T09:53:32.088Z,4208
2016-10-25T09:54:40.785Z,4556
2016-10-25T09:55:49.477Z,4612
2016-10-25T09:56:58.181Z,4552
2016-10-25T09:58:06.879Z,4384
2016-10-25T09:59:15.583Z,4264
2016-10-25T10:00:24.284Z,4240
2016-10-25T10:01:33.003Z,4348
2016-10-25T10:02:41.701Z,4604
2016-10-25T10:03:50.405Z,4812
2016-10-25T10:04:59.113Z,5080
2016-10-25T10:06:07.810Z,5508
2016-10-25T10:07:16.514Z,5820
2016-10-25T10:08:25.224Z,5876
2016-10-25T10:09:33.924Z,5800
2016-10-25T10:10:42.626Z,5720
2016-10-25T10:11:51.320Z,5640
2016-10-25T10:13:00.024Z,5556
2016-10-25T10:14:08.720Z,5512
2016-10-25T10:15:17.423Z,5576
2016-10-25T10:16:26.120Z,5688
2016-10-25T10:17:34.816Z,5828
2016-10-25T10:18:43.521Z,5952
2016-10-25T10:19:52.221Z,6048
2016-10-25T10:21:00.923Z,6140
2016-10-25T10:22:09.621Z,6216
2016-10-25T10:23:18.323Z,6224
2016-10-25T10:24:27.026Z,6144
2016-10-25T10:25:35.724Z,6072
2016-10-25T10:26:44.452Z,6116
2016-10-25T10:27:53.147Z,6272
2016-10-25T10:29:01.850Z,6460
2016-10-25T10:30:10.547Z,6608
2016-10-25T10:31:19.250Z,6672
2016-10-25T10:32:27.959Z,6692
2016-10-25T10:33:36.659Z,6696
2016-10-25T10:34:45.401Z,6624
2016-10-25T10:35:54.098Z,6496
2016-10-25T10:37:02.860Z,6424
2016-10-25T10:38:11.588Z,6388
2016-10-25T10:39:20.307Z,6480
2016-10-25T10:40:29.031Z,6672
2016-10-25T10:41:37.742Z,6900
2016-10-25T10:42:46.439Z,7200
2016-10-25T10:43:55.136Z,7404
2016-10-25T10:45:03.841Z,7500
2016-10-25T10:46:12.907Z,7496
2016-10-25T10:47:21.608Z,7364
2016-10-25T10:48:30.310Z,7132
2016-10-25T10:49:39.007Z,6812
2016-10-25T10:50:47.711Z,6372
2016-10-25T10:51:56.411Z,6044
2016-10-25T10:53:05.190Z,5756
2016-10-25T10:54:13.893Z,5276
2016-10-25T10:55:22.588Z,4784
2016-10-25T10:56:31.294Z,4464
2016-10-25T10:57:39.991Z,4316
2016-10-25T10:58:48.694Z,4272
2016-10-25T10:59:57.399Z,4360
2016-10-25T11:01:06.102Z,4516
2016-10-25T11:02:14.803Z,4668
2016-10-25T11:03:23.504Z,4736
2016-10-25T11:04:32.205Z,4728
2016-10-25T11:05:40.899Z,4672
2016-10-25T11:06:49.598Z,4652
2016-10-25T11:07:58.299Z,4612
2016-10-25T11:09:06.997Z,4416
2016-10-25T11:10:15.695Z,4044
2016-10-25T11:11:24.396Z,3592
2016-10-25T11:12:33.103Z,3256
2016-10-25T11:13:41.803Z,3152
2016-10-25T11:14:50.500Z,3196
2016-10-25T11:15:59.206Z,3284
2016-10-25T11:17:07.941Z,3384
2016-10-25T11:18:16.647Z,3492
2016-10-25T11:19:25.358Z,3576
2016-10-25T11:20:34.412Z,3724
2016-10-25T11:21:43.110Z,3916
2016-10-25T11:22:51.820Z,4112
2016-10-25T11:24:00.517Z,4216
2016-10-25T11:25:09.217Z,4276
2016-10-25T11:26:17.915Z,4368
2016-10-25T11:27:26.620Z,4496
2016-10-25T11:28:35.321Z,4596
2016-10-25T11:29:44.051Z,4576
2016-10-25T11:30:52.762Z,4544
2016-10-25T11:32:01.460Z,4616
2016-10-25T11:33:10.164Z,4768
2016-10-25T11:34:18.864Z,4904
2016-10-25T11:35:27.563Z,4992
2016-10-25T11:36:36.253Z,4860
2016-10-25T11:37:44.983Z,4644
2016-10-25T11:38:53.683Z,4460
2016-10-25T11:40:02.382Z,4400
2016-10-25T11:41:11.081Z,4492
2016-10-25T11:42:20.093Z,4660
2016-10-25T11:43:28.799Z,4828
2016-10-25T11:44:37.503Z,4936
2016-10-25T11:45:46.206Z,4888
2016-10-25T11:46:54.909Z,4704
2016-10-25T11:48:03.646Z,4436
2016-10-25T11:49:12.344Z,4152
2016-10-25T11:50:21.043Z,3928
2016-10-25T11:51:29.747Z,3752
2016-10-25T11:52:38.451Z,3696
2016-10-25T11:53:47.146Z,3752
2016-10-25T11:54:55.855Z,3880
2016-10-25T11:56:04.554Z,4012
2016-10-25T11:57:13.310Z,4076
2016-10-25T11:58:22.013Z,4080
2016-10-25T11:59:31.032Z,4072
2016-10-25T12:00:39.738Z,4084
2016-10-25T12:01:48.441Z,4112
2016-10-25T12:02:57.390Z,4124
2016-10-25T12:04:06.101Z,4156
2016-10-25T12:05:14.811Z,4232
2016-10-25T12:06:23.530Z,4328
2016-10-25T12:07:32.225Z,4412
2016-10-25T12:08:40.975Z,4492
2016-10-25T12:09:49.678Z,4556
2016-10-25T12:10:58.377Z,4624
2016-10-25T12:12:07.080Z,4660
2016-10-25T12:13:15.784Z,4556
2016-10-25T12:14:24.580Z,4380
2016-10-25T12:15:33.296Z,4264
2016-10-25T12:16:42.015Z,4228
2016-10-25T12:17:50.712Z,4276
2016-10-25T12:18:59.406Z,4460
2016-10-25T12:20:08.176Z,4664
2016-10-25T12:21:16.881Z,4848
2016-10-25T12:22:25.897Z,4988
2016-10-25T12:23:34.598Z,5056
2016-10-25T12:24:43.297Z,5124
2016-10-25T12:25:52.040Z,5184
2016-10-25T12:27:00.741Z,5192
2016-10-25T12:28:09.439Z,5208
2016-10-25T12:29:18.142Z,5372
2016-10-25T12:30:26.871Z,5540
2016-10-25T12:31:35.619Z,5596
2016-10-25T12:32:44.314Z,5496
2016-10-25T12:33:53.010Z,5444
2016-10-25T12:35:01.714Z,5416
2016-10-25T12:36:10.431Z,5328
2016-10-25T12:37:19.179Z,5168
2016-10-25T12:38:27.879Z,4736
2016-10-25T12:39:36.584Z,4320
2016-10-25T12:40:45.286Z,4044
2016-10-25T12:41:54.018Z,3828
2016-10-25T12:43:02.769Z,3768
2016-10-25T12:44:11.462Z,3660
2016-10-25T12:45:20.187Z,3688
2016-10-25T12:46:29.211Z,3740
2016-10-25T12:47:37.909Z,3860
2016-10-25T12:48:46.657Z,4008
2016-10-25T12:49:55.353Z,4068
2016-10-25T12:51:04.106Z,4456
2016-10-25T12:52:12.806Z,4988
2016-10-25T12:53:21.508Z,5444
2016-10-25T12:54:30.304Z,5668
2016-10-25T12:55:39.034Z,5524
2016-10-25T12:56:47.733Z,5276
2016-10-25T12:57:56.428Z,5084
2016-10-25T12:59:05.132Z,4836
2016-10-25T13:00:13.910Z,4708
2016-10-25T13:01:22.607Z,4656
2016-10-25T13:02:31.329Z,4640
2016-10-25T13:03:40.059Z,4500
2016-10-25T13:04:48.757Z,4124
2016-10-25T13:05:57.561Z,3652
2016-10-25T13:07:06.353Z,3128
2016-10-25T13:08:15.081Z,2836
2016-10-25T13:09:23.805Z,2920
2016-10-25T13:10:32.814Z,3232
2016-10-25T13:11:41.563Z,3616
2016-10-25T13:12:50.267Z,3656
2016-10-25T13:13:58.968Z,3520
2016-10-25T13:15:07.665Z,3328
2016-10-25T13:16:16.378Z,3248
2016-10-25T13:17:25.129Z,3172
2016-10-25T13:18:33.824Z,3144
2016-10-25T13:19:42.521Z,3104
2016-10-25T13:20:51.217Z,3072
2016-10-25T13:21:59.914Z,3040
2016-10-25T13:23:08.662Z,2888
2016-10-25T13:24:17.368Z,2700
2016-10-25T13:25:26.081Z,2500
2016-10-25T13:26:34.795Z,2280
2016-10-25T13:27:43.528Z,2188
2016-10-25T13:28:52.270Z,2220
2016-10-25T13:30:00.979Z,2304
2016-10-25T13:31:09.673Z,2400
2016-10-25T13:32:18.371Z,2484
2016-10-25T13:33:27.065Z,2624
2016-10-25T13:34:35.819Z,2852
2016-10-25T13:35:44.515Z,3140
2016-10-25T13:36:53.220Z,3392
2016-10-25T13:38:01.920Z,3688
2016-10-25T13:39:10.626Z,3616
2016-10-25T13:40:19.367Z,3488
2016-10-25T13:41:28.069Z,3408
2016-10-25T13:42:36.808Z,3500
2016-10-25T13:43:45.512Z,3688
2016-10-25T13:44:54.215Z,3832
2016-10-25T13:46:02.962Z,3956
2016-10-25T13:47:11.667Z,4084
2016-10-25T13:48:20.360Z,4048
2016-10-25T13:49:29.059Z,3968
2016-10-25T13:50:37.754Z,3972
2016-10-25T13:51:46.510Z,4020
2016-10-25T13:52:55.242Z,4200
2016-10-25T13:54:04.264Z,4432
2016-10-25T13:55:12.967Z,4828
2016-10-25T13:56:21.673Z,5236
2016-10-25T13:57:30.419Z,5632
2016-10-25T13:58:39.445Z,6264
2016-10-25T13:59:48.182Z,6560
2016-10-25T14:00:56.894Z,6768
2016-10-25T14:02:05.590Z,6964
2016-10-25T14:03:14.346Z,7364
2016-10-25T14:04:23.039Z,7652
2016-10-25T14:05:31.742Z,8108
2016-10-25T14:06:40.440Z,8424
2016-10-25T14:07:49.138Z,8188
2016-10-25T14:08:57.890Z,7672
2016-10-25T14:10:06.592Z,7092
2016-10-25T14:11:15.338Z,6304
2016-10-25T14:12:24.365Z,5620
2016-10-25T14:13:33.113Z,5324
2016-10-25T14:14:42.180Z,5184
2016-10-25T14:15:50.891Z,5204
2016-10-25T14:16:59.903Z,5244
2016-10-25T14:18:08.604Z,4924
2016-10-25T14:19:17.308Z,4588
2016-10-25T14:20:26.264Z,4352
2016-10-25T14:21:34.967Z,4180
2016-10-25T14:22:43.669Z,4032
2016-10-25T14:23:52.686Z,3968
2016-10-25T14:25:01.417Z,3956
2016-10-25T14:26:10.175Z,3920
2016-10-25T14:27:18.880Z,3852
2016-10-25T14:28:27.582Z,3776
2016-10-25T14:29:36.283Z,3700
2016-10-25T14:30:44.993Z,3612
2016-10-25T14:31:53.743Z,3528
2016-10-25T14:33:02.443Z,3464
2016-10-25T14:34:11.143Z,3404
2016-10-25T14:35:19.847Z,3328
2016-10-25T14:36:28.549Z,3236
2016-10-25T14:37:37.303Z,3136
2016-10-25T14:38:46.005Z,3056
2016-10-25T14:39:54.703Z,3004
2016-10-25T14:41:03.402Z,2952
2016-10-25T14:42:12.255Z,2896
2016-10-25T14:43:21.060Z,2840
2016-10-25T14:44:29.759Z,2772
2016-10-25T14:45:38.460Z,2696
2016-10-25T14:46:47.158Z,2608
2016-10-25T14:47:55.867Z,2524
2016-10-25T14:49:04.616Z,2468
2016-10-25T14:50:13.314Z,2432
2016-10-25T14:51:22.015Z,2440
2016-10-25T14:52:31.080Z,2428
2016-10-25T14:53:39.780Z,2384
2016-10-25T14:54:48.536Z,2312
2016-10-25T14:55:57.237Z,2224
2016-10-25T14:57:05.930Z,2112
2016-10-25T14:58:14.628Z,2028
2016-10-25T14:59:23.335Z,1936
2016-10-25T15:00:32.085Z,1852
2016-10-25T15:01:40.795Z,1756
2016-10-25T15:02:49.497Z,1672
2016-10-25T15:03:58.197Z,1588
2016-10-25T15:05:06.898Z,1508
2016-10-25T15:06:15.650Z,1432
2016-10-25T15:07:24.673Z,1364
2016-10-25T15:08:33.375Z,1304
2016-10-25T15:09:42.072Z,1256
2016-10-25T15:10:50.800Z,1216
2016-10-25T15:11:59.552Z,1164
2016-10-25T15:13:08.258Z,1116
2016-10-25T15:14:16.968Z,1068
2016-10-25T15:15:25.677Z,1016
2016-10-25T15:16:34.415Z,968
2016-10-25T15:17:43.174Z,924
2016-10-25T15:18:51.872Z,888
2016-10-25T15:20:00.568Z,852
2016-10-25T15:21:09.266Z,812
2016-10-25T15:22:17.970Z,772
2016-10-25T15:23:26.738Z,732
2016-10-25T15:24:35.436Z,700
2016-10-25T15:25:44.137Z,664
2016-10-25T15:26:52.839Z,628
2016-10-25T15:28:01.539Z,580
2016-10-25T15:29:10.287Z,540
2016-10-25T15:30:18.983Z,512
2016-10-25T15:31:27.698Z,488
2016-10-25T15:32:36.395Z,460
2016-10-25T15:33:45.133Z,432
2016-10-25T15:34:53.882Z,400
2016-10-25T15:36:02.581Z,372
2016-10-25T15:37:11.276Z,352
2016-10-25T15:38:19.982Z,328
2016-10-25T15:39:28.677Z,308
2016-10-25T15:40:37.428Z,288
2016-10-25T15:41:46.443Z,268
2016-10-25T15:42:55.134Z,256
2016-10-25T15:44:03.836Z,240
2016-10-25T15:45:12.538Z,228
2016-10-25T15:46:21.285Z,212
2016-10-25T15:47:30.018Z,200
2016-10-25T15:48:38.746Z,188
2016-10-25T15:49:47.445Z,176
2016-10-25T15:50:56.159Z,168
2016-10-25T15:52:04.911Z,156
2016-10-25T15:53:13.647Z,152
2016-10-25T15:54:22.355Z,144
2016-10-25T15:55:31.057Z,136
2016-10-25T15:56:39.756Z,128
2016-10-25T15:57:48.512Z,124
2016-10-25T15:58:57.211Z,116
2016-10-25T16:00:05.923Z,120